Time;durP1;ratioP1;P1;durP2;ratioP2;P2;SDS_P1;SDS_P2;PMS_P1;PMS_P2;Temp;Humidity;BMP_temperature;BMP_pressure;BME280_temperature;BME280_humidity;BME280_pressure;Samples;Min_cycle;Max_cycle;Signal;HPM_P1;HPM_P2
2022/04/11 00:00:23;;;;;;;7.65;6.85;;;0.80;99.90;;;;;;4999960;28;20472;-75
2022/04/11 00:02:49;;;;;;;7.43;6.75;;;0.70;99.90;;;;;;5005708;28;20082;-75
2022/04/11 00:05:15;;;;;;;9.63;7.15;;;0.70;99.90;;;;;;4989731;28;20121;-74
2022/04/11 00:07:40;;;;;;;7.78;6.38;;;0.60;99.90;;;;;;4983589;28;20030;-74
2022/04/11 00:10:06;;;;;;;7.32;6.63;;;0.60;99.90;;;;;;4999840;28;20094;-74
2022/04/11 00:12:35;;;;;;;7.43;6.35;;;0.60;99.90;;;;;;5005866;28;20103;-74
2022/04/11 00:15:02;;;;;;;7.00;6.30;;;0.50;99.90;;;;;;5007399;28;20472;-74
2022/04/11 00:17:28;;;;;;;6.53;5.90;;;0.50;99.90;;;;;;5005620;28;20029;-74
2022/04/11 00:19:53;;;;;;;7.25;6.38;;;0.60;99.90;;;;;;5007288;28;20021;-75
2022/04/11 00:22:19;;;;;;;9.80;6.45;;;0.60;99.90;;;;;;5005662;28;20033;-75
2022/04/11 00:24:44;;;;;;;7.35;6.35;;;0.60;99.90;;;;;;5006196;28;20034;-74
2022/04/11 00:27:10;;;;;;;8.57;7.68;;;0.60;99.90;;;;;;5000437;28;20444;-74
2022/04/11 00:29:35;;;;;;;8.90;7.68;;;0.50;99.90;;;;;;4999344;28;20030;-74
2022/04/11 00:32:01;;;;;;;9.15;7.57;;;0.60;99.90;;;;;;4999983;28;20443;-73
2022/04/11 00:34:27;;;;;;;9.30;7.85;;;0.60;99.90;;;;;;4999022;28;20018;-73
2022/04/11 00:36:52;;;;;;;9.73;8.10;;;0.60;99.90;;;;;;5000177;28;20017;-73
2022/04/11 00:39:18;;;;;;;9.20;7.22;;;0.60;99.90;;;;;;4999446;28;20362;-74
2022/04/11 00:41:43;;;;;;;8.70;7.20;;;0.60;99.90;;;;;;4987982;28;20026;-74
2022/04/11 00:44:09;;;;;;;10.57;7.55;;;0.70;99.90;;;;;;5006152;28;20048;-73
2022/04/11 00:46:34;;;;;;;8.00;7.20;;;0.80;99.90;;;;;;4999918;28;20030;-74
2022/04/11 00:49:00;;;;;;;9.32;7.15;;;0.70;99.90;;;;;;4999183;28;20045;-74
2022/04/11 00:51:26;;;;;;;8.80;7.88;;;0.80;99.90;;;;;;4988161;28;20370;-74
2022/04/11 00:53:54;;;;;;;8.45;7.45;;;0.70;99.90;;;;;;5005890;28;20443;-73
2022/04/11 00:56:20;;;;;;;8.50;7.68;;;0.60;99.90;;;;;;4999837;28;20434;-74
2022/04/11 00:58:46;;;;;;;8.02;7.20;;;0.70;99.90;;;;;;4999169;28;20034;-75
2022/04/11 01:01:13;;;;;;;8.68;7.88;;;0.70;99.90;;;;;;4987423;28;20396;-75
2022/04/11 01:03:39;;;;;;;8.57;7.40;;;0.60;99.90;;;;;;5006375;28;20032;-74
2022/04/11 01:06:07;;;;;;;9.73;8.30;;;0.50;99.90;;;;;;5004580;28;20035;-75
2022/04/11 01:08:33;;;;;;;8.68;7.30;;;0.50;99.90;;;;;;5005775;28;20026;-74
2022/04/11 01:11:00;;;;;;;10.70;7.35;;;0.40;99.90;;;;;;4974918;28;20022;-75
2022/04/11 01:13:26;;;;;;;8.75;6.95;;;0.40;99.90;;;;;;5005803;28;20480;-73
2022/04/11 01:16:00;;;;;;;9.18;7.47;;;0.50;99.90;;;;;;5000370;28;20030;-74
2022/04/11 01:18:26;;;;;;;9.88;7.90;;;0.40;99.90;;;;;;4998942;28;20504;-74
2022/04/11 01:20:52;;;;;;;8.13;7.43;;;0.30;99.90;;;;;;5011834;28;20030;-74
2022/04/11 01:23:18;;;;;;;9.10;8.05;;;0.30;99.90;;;;;;4998714;28;20046;-75
2022/04/11 01:25:51;;;;;;;8.65;7.75;;;0.20;99.90;;;;;;4985625;28;20089;-75
2022/04/11 01:28:18;;;;;;;8.35;7.53;;;0.20;99.90;;;;;;5005416;28;20105;-76
2022/04/11 01:30:44;;;;;;;10.93;9.27;;;0.10;99.90;;;;;;5001760;28;20479;-75
2022/04/11 01:33:21;;;;;;;8.40;7.50;;;0.00;99.90;;;;;;4998827;28;20028;-75
2022/04/11 01:35:46;;;;;;;9.23;7.50;;;0.10;99.90;;;;;;5011913;28;20036;-74
2022/04/11 01:38:12;;;;;;;9.68;7.70;;;0.00;99.90;;;;;;4998938;28;20445;-75
2022/04/11 01:40:45;;;;;;;7.97;7.15;;;0.00;99.90;;;;;;4983307;28;20077;-75
2022/04/11 01:43:11;;;;;;;8.50;7.70;;;0.00;99.90;;;;;;4987856;28;20034;-76
2022/04/11 01:45:36;;;;;;;9.43;7.93;;;0.00;99.90;;;;;;5004022;28;20547;-75
2022/04/11 01:48:03;;;;;;;8.90;8.10;;;0.10;99.90;;;;;;4976155;28;20042;-74
2022/04/11 01:50:28;;;;;;;8.93;7.90;;;0.00;99.90;;;;;;4991704;28;20121;-75
2022/04/11 01:52:53;;;;;;;7.75;6.95;;;0.00;99.90;;;;;;4987913;28;20455;-75
2022/04/11 01:55:19;;;;;;;8.27;7.28;;;0.30;99.90;;;;;;4986240;28;20060;-76
2022/04/11 01:57:44;;;;;;;12.75;8.05;;;0.10;99.90;;;;;;4998698;28;20018;-75
2022/04/11 02:00:11;;;;;;;8.05;6.93;;;0.00;99.90;;;;;;4983033;28;20072;-75
2022/04/11 02:02:36;;;;;;;8.88;7.15;;;0.00;99.90;;;;;;4988675;28;20050;-74
2022/04/11 02:05:02;;;;;;;9.80;7.43;;;0.20;99.90;;;;;;5012838;28;20033;-76
2022/04/11 02:07:27;;;;;;;10.27;7.72;;;0.20;99.90;;;;;;5014709;28;20026;-77
2022/04/11 02:09:53;;;;;;;8.60;7.68;;;0.20;99.90;;;;;;4982785;28;20109;-75
2022/04/11 02:12:18;;;;;;;7.03;6.32;;;0.30;99.90;;;;;;5007203;28;20029;-74
2022/04/11 02:14:44;;;;;;;9.73;7.13;;;0.30;99.90;;;;;;4989455;28;20022;-74
2022/04/11 02:17:09;;;;;;;10.20;7.13;;;0.30;99.90;;;;;;5009302;28;20552;-73
2022/04/11 02:19:35;;;;;;;10.98;8.07;;;0.30;99.90;;;;;;5007678;28;20105;-75
2022/04/11 02:22:00;;;;;;;8.25;7.45;;;0.30;99.90;;;;;;5002788;28;20034;-74
2022/04/11 02:24:26;;;;;;;9.68;7.82;;;0.20;99.90;;;;;;5004268;28;20396;-75
2022/04/11 02:26:51;;;;;;;9.18;8.05;;;0.00;99.90;;;;;;5009208;28;20030;-76
2022/04/11 02:29:17;;;;;;;9.45;8.48;;;0.00;99.90;;;;;;4990130;28;20113;-74
2022/04/11 02:31:42;;;;;;;8.30;7.38;;;-0.10;99.90;;;;;;4984431;28;20022;-74
2022/04/11 02:34:08;;;;;;;10.93;8.43;;;-0.20;99.90;;;;;;5003862;28;20034;-75
2022/04/11 02:36:33;;;;;;;8.60;7.78;;;-0.10;99.90;;;;;;4991091;28;20023;-75
2022/04/11 02:38:59;;;;;;;9.77;8.10;;;-0.20;99.90;;;;;;4989424;28;20499;-75
2022/04/11 02:41:24;;;;;;;8.30;7.50;;;-0.20;99.90;;;;;;4983942;28;20164;-75
2022/04/11 02:43:50;;;;;;;11.23;8.52;;;-0.10;99.90;;;;;;5003521;28;20390;-76
2022/04/11 02:46:15;;;;;;;12.43;11.32;;;0.00;99.90;;;;;;5008460;28;20034;-76
2022/04/11 02:48:41;;;;;;;10.40;9.30;;;0.00;99.90;;;;;;5006560;28;20038;-75
2022/04/11 02:51:07;;;;;;;9.05;8.18;;;0.00;99.90;;;;;;5001339;28;20037;-75
2022/04/11 02:53:32;;;;;;;10.80;9.07;;;0.00;99.90;;;;;;5003131;28;20022;-75
2022/04/11 02:55:58;;;;;;;12.45;9.15;;;0.00;99.90;;;;;;5008362;28;20069;-74
2022/04/11 02:58:23;;;;;;;9.20;8.38;;;0.00;99.90;;;;;;5006472;28;20538;-75
2022/04/11 03:00:48;;;;;;;9.32;8.40;;;0.00;99.90;;;;;;4991675;28;20026;-74
2022/04/11 03:03:14;;;;;;;9.98;8.88;;;0.00;99.90;;;;;;5006227;28;20052;-74
2022/04/11 03:05:39;;;;;;;9.40;8.43;;;0.00;99.90;;;;;;5000777;28;20101;-74
2022/04/11 03:08:05;;;;;;;10.18;9.25;;;0.00;99.90;;;;;;4996808;28;20080;-74
2022/04/11 03:10:31;;;;;;;12.95;9.75;;;0.10;99.90;;;;;;4996731;28;20038;-74
2022/04/11 03:12:56;;;;;;;10.38;9.27;;;0.00;99.90;;;;;;4995063;28;20435;-73
2022/04/11 03:15:22;;;;;;;11.98;10.20;;;-0.10;99.90;;;;;;4994611;28;20034;-72
2022/04/11 03:17:47;;;;;;;11.75;9.88;;;-0.40;99.90;;;;;;5005305;28;20064;-73
2022/04/11 03:20:13;;;;;;;9.73;8.63;;;-0.50;99.90;;;;;;5000834;28;20057;-77
2022/04/11 03:22:39;;;;;;;9.70;8.70;;;-0.50;99.90;;;;;;5014145;28;20076;-74
2022/04/11 03:25:05;;;;;;;10.95;9.27;;;-0.30;99.90;;;;;;4983441;28;20075;-74
2022/04/11 03:27:31;;;;;;;13.63;12.23;;;-0.40;99.90;;;;;;5003224;28;20069;-74
2022/04/11 03:29:56;;;;;;;11.82;9.93;;;-0.30;99.90;;;;;;5007362;28;20074;-74
2022/04/11 03:32:22;;;;;;;11.20;10.20;;;-0.30;99.90;;;;;;5004824;28;20566;-74
2022/04/11 03:34:50;;;;;;;13.02;10.40;;;-0.30;99.90;;;;;;5000619;28;20014;-74
2022/04/11 03:37:15;;;;;;;9.48;8.50;;;-0.20;99.90;;;;;;5002971;28;20026;-74
2022/04/11 03:39:41;;;;;;;10.05;8.95;;;-0.20;99.90;;;;;;5011538;28;20495;-74
2022/04/11 03:42:06;;;;;;;10.85;9.85;;;-0.30;99.90;;;;;;5013809;28;20066;-73
2022/04/11 03:44:32;;;;;;;10.10;9.02;;;-0.30;99.90;;;;;;4983120;28;20090;-73
2022/04/11 03:46:57;;;;;;;12.00;10.57;;;-0.30;99.90;;;;;;5003080;28;20031;-77
2022/04/11 03:49:23;;;;;;;11.65;10.43;;;-0.20;99.90;;;;;;5007074;28;20403;-72
2022/04/11 03:51:48;;;;;;;12.48;11.10;;;-0.50;99.90;;;;;;5004353;28;20030;-72
2022/04/11 03:54:14;;;;;;;13.68;11.13;;;-0.50;99.90;;;;;;4978983;28;20073;-73
2022/04/11 03:56:39;;;;;;;10.68;9.63;;;-0.60;99.90;;;;;;5004377;28;20025;-73
2022/04/11 03:59:05;;;;;;;11.25;9.70;;;-0.80;99.90;;;;;;4982727;28;20416;-72
2022/04/11 04:01:30;;;;;;;9.90;8.90;;;-0.70;99.90;;;;;;5003226;28;20042;-73
2022/04/11 04:03:56;;;;;;;12.73;10.68;;;-0.70;99.90;;;;;;4992702;28;20135;-72
2022/04/11 04:06:21;;;;;;;12.73;11.25;;;-0.80;99.90;;;;;;5013269;28;20076;-73
2022/04/11 04:08:47;;;;;;;11.50;10.07;;;-0.80;99.90;;;;;;4982605;28;20022;-73
2022/04/11 04:11:13;;;;;;;11.98;10.77;;;-0.90;99.90;;;;;;5003067;28;20553;-73
2022/04/11 04:13:38;;;;;;;14.15;11.73;;;-0.80;99.90;;;;;;4989356;28;20019;-74
2022/04/11 04:16:05;;;;;;;13.55;11.85;;;-0.90;99.90;;;;;;5003646;28;20144;-73
2022/04/11 04:18:30;;;;;;;25.58;21.00;;;-1.00;99.90;;;;;;4999726;28;20050;-73
2022/04/11 04:20:56;;;;;;;20.13;16.50;;;-1.10;99.90;;;;;;5013001;28;20112;-74
2022/04/11 04:23:22;;;;;;;13.65;11.93;;;-0.90;99.90;;;;;;5000030;28;20034;-72
2022/04/11 04:25:47;;;;;;;12.20;10.35;;;-0.80;99.90;;;;;;5003367;28;20397;-72
2022/04/11 04:28:15;;;;;;;11.55;10.35;;;-0.90;99.90;;;;;;5006565;28;20109;-73
2022/04/11 04:30:40;;;;;;;12.98;11.45;;;-0.80;99.90;;;;;;4985102;28;20482;-73
2022/04/11 04:33:06;;;;;;;14.30;12.75;;;-0.90;99.90;;;;;;4996691;28;20122;-74
2022/04/11 04:35:31;;;;;;;11.98;10.80;;;-0.90;99.90;;;;;;4985134;28;20026;-73
2022/04/11 04:37:57;;;;;;;15.98;13.80;;;-1.00;99.90;;;;;;4999566;28;20502;-73
2022/04/11 04:40:22;;;;;;;12.93;11.60;;;-1.00;99.90;;;;;;5002684;28;20090;-73
2022/04/11 04:42:48;;;;;;;12.93;11.57;;;-0.90;99.90;;;;;;5008765;28;20026;-74
2022/04/11 04:45:13;;;;;;;14.23;10.98;;;-0.90;99.90;;;;;;4995015;28;20392;-75
2022/04/11 04:47:39;;;;;;;13.63;11.88;;;-0.90;99.90;;;;;;4999145;28;20449;-73
2022/04/11 04:50:05;;;;;;;13.68;12.13;;;-0.80;99.90;;;;;;4985747;28;20400;-75
2022/04/11 04:52:31;;;;;;;13.65;11.95;;;-0.80;99.90;;;;;;4988073;28;20061;-74
2022/04/11 04:54:56;;;;;;;12.88;11.55;;;-0.80;99.90;;;;;;4984254;28;20052;-75
2022/04/11 04:57:22;;;;;;;13.35;11.75;;;-0.70;99.90;;;;;;5010374;28;20478;-73
2022/04/11 04:59:48;;;;;;;13.93;10.65;;;-0.60;99.90;;;;;;5001466;28;20033;-74
2022/04/11 05:02:13;;;;;;;13.02;11.10;;;-0.60;99.90;;;;;;4979306;28;20033;-75
2022/04/11 05:04:39;;;;;;;11.85;10.32;;;-0.60;99.90;;;;;;4992744;28;20113;-74
2022/04/11 05:07:04;;;;;;;15.82;13.75;;;-0.60;99.90;;;;;;4992686;28;20084;-75
2022/04/11 05:09:30;;;;;;;13.98;12.60;;;-0.60;99.90;;;;;;5001591;28;20029;-74
2022/04/11 05:11:55;;;;;;;13.20;11.80;;;-0.60;99.90;;;;;;4978997;28;20030;-74
2022/04/11 05:14:21;;;;;;;11.80;10.60;;;-0.60;99.90;;;;;;5001374;28;20388;-74
2022/04/11 05:16:46;;;;;;;12.57;11.27;;;-0.40;99.90;;;;;;4979090;28;20421;-74
2022/04/11 05:19:12;;;;;;;13.95;11.65;;;-0.20;99.90;;;;;;4983794;28;20026;-74
2022/04/11 05:21:37;;;;;;;13.10;11.48;;;-0.20;99.90;;;;;;5009765;28;20030;-73
2022/04/11 05:24:03;;;;;;;12.32;11.02;;;-0.20;99.90;;;;;;4983624;28;20030;-74
2022/04/11 05:26:28;;;;;;;12.25;10.95;;;-0.10;99.90;;;;;;4981320;28;20034;-74
2022/04/11 05:28:54;;;;;;;13.05;11.52;;;0.00;99.90;;;;;;5003874;28;20030;-76
2022/04/11 05:31:19;;;;;;;13.43;10.55;;;0.10;99.90;;;;;;5005370;28;20026;-74
2022/04/11 05:33:45;;;;;;;13.73;12.35;;;0.10;99.90;;;;;;5000500;28;20443;-74
2022/04/11 05:36:11;;;;;;;12.18;10.95;;;0.20;99.90;;;;;;4997242;28;20035;-74
2022/04/11 05:38:37;;;;;;;13.50;12.18;;;0.30;99.90;;;;;;4982501;28;20026;-74
2022/04/11 05:41:03;;;;;;;13.35;11.93;;;0.30;99.90;;;;;;4992882;28;20033;-74
2022/04/11 05:43:28;;;;;;;13.80;12.40;;;0.40;99.90;;;;;;5000131;28;20041;-73
2022/04/11 05:45:54;;;;;;;12.88;11.63;;;0.50;99.90;;;;;;4998728;28;20034;-73
2022/04/11 05:48:19;;;;;;;14.93;13.32;;;0.50;99.90;;;;;;5003958;28;20034;-74
2022/04/11 05:50:45;;;;;;;13.25;11.88;;;0.50;99.90;;;;;;5004891;28;20079;-74
2022/04/11 05:53:10;;;;;;;14.55;13.13;;;0.60;99.90;;;;;;5003206;28;20427;-74
2022/04/11 05:55:36;;;;;;;14.38;13.00;;;0.60;99.90;;;;;;5002408;28;20031;-74
2022/04/11 05:58:01;;;;;;;13.65;12.40;;;0.70;99.90;;;;;;4990866;28;20023;-74
2022/04/11 06:00:27;;;;;;;14.25;12.85;;;0.60;99.90;;;;;;5009006;28;20026;-74
2022/04/11 06:02:52;;;;;;;13.15;11.98;;;0.80;99.90;;;;;;5003347;28;20496;-74
2022/04/11 06:05:18;;;;;;;14.18;12.82;;;0.90;99.90;;;;;;5015591;28;20033;-74
2022/04/11 06:07:44;;;;;;;14.32;12.95;;;0.70;99.90;;;;;;5007526;28;20145;-74
2022/04/11 06:10:10;;;;;;;14.90;13.43;;;0.90;99.90;;;;;;5008748;28;20018;-75
2022/04/11 06:12:36;;;;;;;15.45;13.85;;;0.80;99.90;;;;;;4992755;28;20025;-74
2022/04/11 06:15:03;;;;;;;16.48;12.50;;;0.90;99.90;;;;;;5000636;28;20029;-74
2022/04/11 06:17:29;;;;;;;14.40;12.55;;;0.70;99.90;;;;;;5003876;28;20025;-74
2022/04/11 06:19:56;;;;;;;12.57;11.38;;;0.90;99.90;;;;;;5000334;28;20544;-74
2022/04/11 06:22:23;;;;;;;14.23;12.77;;;1.00;99.90;;;;;;4977947;28;20117;-74
2022/04/11 06:24:49;;;;;;;14.18;12.80;;;1.00;99.90;;;;;;5010326;28;20034;-74
2022/04/11 06:27:17;;;;;;;14.40;12.88;;;1.00;99.90;;;;;;5007239;28;20026;-74
2022/04/11 06:29:43;;;;;;;14.20;12.90;;;1.00;99.90;;;;;;5008551;28;20373;-75
2022/04/11 06:32:09;;;;;;;13.95;12.30;;;1.00;99.90;;;;;;4986076;28;20132;-74
2022/04/11 06:34:35;;;;;;;14.52;13.05;;;1.00;99.90;;;;;;5000130;28;20023;-74
2022/04/11 06:37:01;;;;;;;14.00;12.57;;;1.10;99.90;;;;;;5003466;28;20022;-74
2022/04/11 06:39:27;;;;;;;14.18;12.70;;;1.30;99.90;;;;;;4984158;28;20026;-74
2022/04/11 06:41:53;;;;;;;13.85;12.32;;;1.60;99.90;;;;;;5006770;28;20057;-74
2022/04/11 06:44:18;;;;;;;13.77;12.38;;;1.70;99.90;;;;;;4996513;28;20503;-73
2022/04/11 06:46:44;;;;;;;13.50;12.10;;;1.80;99.90;;;;;;4989327;28;20034;-74
2022/04/11 06:49:09;;;;;;;13.85;12.15;;;1.80;99.90;;;;;;5008072;28;20383;-74
2022/04/11 06:51:35;;;;;;;13.10;11.82;;;1.90;99.90;;;;;;5002158;28;20041;-74
2022/04/11 06:54:01;;;;;;;15.00;11.48;;;2.00;99.90;;;;;;5013468;28;20065;-73
2022/04/11 06:56:26;;;;;;;12.55;11.27;;;2.00;99.90;;;;;;5002592;28;20634;-73
2022/04/11 06:58:52;;;;;;;13.32;10.82;;;2.00;99.90;;;;;;5004072;28;20033;-73
2022/04/11 07:01:17;;;;;;;12.45;11.20;;;2.10;99.90;;;;;;5007006;28;20033;-74
2022/04/11 07:03:43;;;;;;;13.25;11.80;;;2.20;99.90;;;;;;5008366;28;20034;-74
2022/04/11 07:06:10;;;;;;;12.90;11.60;;;2.30;99.90;;;;;;4988707;28;20031;-73
2022/04/11 07:08:36;;;;;;;13.68;12.10;;;2.40;99.90;;;;;;5004406;28;20369;-74
2022/04/11 07:11:02;;;;;;;13.63;11.65;;;2.50;99.90;;;;;;5005521;28;20034;-74
2022/04/11 07:13:27;;;;;;;16.27;13.38;;;2.50;99.90;;;;;;5009693;28;20029;-72
2022/04/11 07:15:53;;;;;;;13.48;12.10;;;2.60;99.90;;;;;;5005826;28;20496;-75
2022/04/11 07:18:25;;;;;;;13.88;11.85;;;2.70;99.90;;;;;;5007803;28;20029;-76
2022/04/11 07:20:51;;;;;;;15.85;13.23;;;2.80;99.90;;;;;;5003895;28;20029;-74
2022/04/11 07:23:17;;;;;;;14.20;12.20;;;3.00;99.90;;;;;;4993813;28;20037;-75
2022/04/11 07:25:43;;;;;;;12.25;10.88;;;3.20;99.90;;;;;;4986290;28;20079;-74
2022/04/11 07:28:08;;;;;;;12.48;11.25;;;3.20;99.90;;;;;;5000812;28;20077;-74
2022/04/11 07:30:34;;;;;;;12.45;11.25;;;3.10;99.90;;;;;;5004960;28;20065;-74
2022/04/11 07:33:00;;;;;;;14.57;11.82;;;3.10;99.90;;;;;;5005988;28;20494;-75
2022/04/11 07:35:25;;;;;;;14.48;12.10;;;3.20;99.90;;;;;;4983620;28;20051;-76
2022/04/11 07:37:51;;;;;;;13.40;11.00;;;3.30;99.90;;;;;;4982859;28;20097;-74
2022/04/11 07:40:16;;;;;;;12.73;11.43;;;3.50;99.90;;;;;;5005181;28;20022;-74
2022/04/11 07:42:42;;;;;;;14.45;11.82;;;3.50;99.90;;;;;;5007250;28;20033;-74
2022/04/11 07:45:08;;;;;;;12.55;11.25;;;3.60;99.90;;;;;;4994044;28;20018;-73
2022/04/11 07:47:34;;;;;;;13.68;11.45;;;3.60;99.90;;;;;;5008777;28;20057;-74
2022/04/11 07:49:59;;;;;;;14.15;11.25;;;3.70;99.90;;;;;;4995892;28;20034;-73
2022/04/11 07:52:26;;;;;;;13.80;11.27;;;3.90;99.90;;;;;;4998663;28;20070;-73
2022/04/11 07:54:52;;;;;;;13.10;10.68;;;4.10;99.90;;;;;;4993928;28;20026;-74
2022/04/11 07:57:18;;;;;;;13.27;11.18;;;4.10;99.90;;;;;;5006977;28;20029;-74
2022/04/11 07:59:43;;;;;;;12.13;10.18;;;4.20;99.90;;;;;;5001997;28;20124;-74
2022/04/11 08:02:09;;;;;;;11.77;9.75;;;4.40;99.90;;;;;;5000067;28;20062;-74
2022/04/11 08:04:34;;;;;;;10.38;9.13;;;4.60;99.90;;;;;;5013732;28;20029;-74
2022/04/11 08:07:01;;;;;;;12.98;9.38;;;4.70;99.90;;;;;;4982699;28;20118;-73
2022/04/11 08:09:27;;;;;;;11.75;8.93;;;4.50;99.90;;;;;;5004816;28;20105;-73
2022/04/11 08:11:52;;;;;;;10.73;9.68;;;4.70;99.90;;;;;;5006503;28;20112;-74
2022/04/11 08:14:18;;;;;;;12.15;9.40;;;4.90;99.90;;;;;;5000901;28;20048;-73
2022/04/11 08:16:43;;;;;;;12.25;9.88;;;5.00;99.90;;;;;;4995433;28;20022;-73
2022/04/11 08:19:09;;;;;;;14.77;10.80;;;5.00;99.90;;;;;;5012720;28;20026;-74
2022/04/11 08:21:34;;;;;;;10.18;9.18;;;5.20;99.90;;;;;;5019731;28;20033;-74
2022/04/11 08:24:00;;;;;;;12.48;9.20;;;5.40;99.90;;;;;;5001310;28;20029;-74
2022/04/11 08:26:25;;;;;;;12.00;10.52;;;5.40;99.90;;;;;;4998444;28;20104;-74
2022/04/11 08:28:51;;;;;;;12.38;9.80;;;5.60;99.90;;;;;;5000908;28;20100;-74
2022/04/11 08:31:17;;;;;;;12.63;8.82;;;6.00;99.90;;;;;;4999292;28;20420;-73
2022/04/11 08:33:42;;;;;;;12.02;8.80;;;6.20;99.90;;;;;;5012710;28;20041;-74
2022/04/11 08:36:08;;;;;;;9.10;7.80;;;6.10;99.90;;;;;;4999768;28;20025;-74
2022/04/11 08:38:33;;;;;;;14.32;9.18;;;6.30;99.90;;;;;;5005393;28;20030;-74
2022/04/11 08:41:02;;;;;;;8.75;7.78;;;6.30;99.90;;;;;;5006698;28;20093;-74
2022/04/11 08:43:28;;;;;;;11.10;7.60;;;6.50;99.90;;;;;;5004949;28;20030;-74
2022/04/11 08:45:55;;;;;;;9.05;7.75;;;6.70;99.90;;;;;;5006172;28;20034;-74
2022/04/11 08:48:22;;;;;;;9.07;7.25;;;7.10;99.90;;;;;;5000453;28;20026;-74
2022/04/11 08:50:48;;;;;;;8.40;6.93;;;7.10;99.90;;;;;;4999494;28;20380;-73
2022/04/11 08:53:14;;;;;;;13.55;7.75;;;7.00;99.90;;;;;;4994889;28;20479;-74
2022/04/11 08:55:39;;;;;;;13.20;7.90;;;7.10;99.90;;;;;;4998117;28;20037;-73
2022/04/11 08:58:05;;;;;;;10.70;8.13;;;7.50;99.90;;;;;;5000563;28;20029;-74
2022/04/11 09:00:31;;;;;;;7.68;6.75;;;7.60;99.90;;;;;;4997748;28;20022;-74
2022/04/11 09:02:56;;;;;;;7.65;5.25;;;7.60;99.90;;;;;;5000555;28;20025;-74
2022/04/11 09:05:25;;;;;;;9.02;5.88;;;7.60;99.90;;;;;;4992915;28;20365;-75
2022/04/11 09:07:58;;;;;;;7.25;5.43;;;7.80;99.90;;;;;;4983862;28;20032;-74
2022/04/11 09:10:29;;;;;;;5.47;4.85;;;7.70;99.90;;;;;;5008672;28;20034;-75
2022/04/11 09:12:58;;;;;;;6.65;4.88;;;7.90;99.90;;;;;;5003411;28;20060;-75
2022/04/11 09:15:24;;;;;;;7.80;4.53;;;8.00;99.90;;;;;;4998784;28;20018;-75
2022/04/11 09:17:51;;;;;;;7.78;5.35;;;8.00;99.90;;;;;;5001551;28;20451;-75
2022/04/11 09:20:24;;;;;;;7.85;6.00;;;8.30;99.90;;;;;;5005307;28;20093;-75
2022/04/11 09:22:49;;;;;;;7.10;5.57;;;8.30;99.90;;;;;;5004076;28;20101;-73
2022/04/11 09:25:23;;;;;;;8.68;6.40;;;8.40;99.90;;;;;;4998760;28;20033;-74
2022/04/11 09:28:06;;;;;;;11.38;6.30;;;8.30;99.90;;;;;;4999241;28;20053;-74
2022/04/11 09:30:33;;;;;;;7.18;5.43;;;8.40;99.90;;;;;;5000379;28;20061;-74
2022/04/11 09:33:00;;;;;;;5.03;4.50;;;8.40;99.90;;;;;;4996874;28;20388;-73
2022/04/11 09:35:32;;;;;;;5.82;5.10;;;8.70;99.90;;;;;;5001022;28;20471;-75
2022/04/11 09:38:10;;;;;;;6.82;4.50;;;8.60;99.90;;;;;;4981390;28;20068;-75
2022/04/11 09:40:44;;;;;;;10.05;5.15;;;8.40;99.90;;;;;;5000297;28;20077;-75
2022/04/11 09:43:11;;;;;;;7.55;5.65;;;8.80;99.90;;;;;;4993885;28;20030;-74
2022/04/11 09:45:48;;;;;;;7.28;4.50;;;9.00;99.90;;;;;;4999050;28;20026;-74
2022/04/11 09:48:25;;;;;;;8.30;4.75;;;8.80;99.90;;;;;;4974669;28;20512;-74
2022/04/11 09:50:51;;;;;;;7.80;4.43;;;8.60;99.90;;;;;;4992093;28;20408;-75
2022/04/11 09:53:29;;;;;;;5.85;4.85;;;8.70;99.90;;;;;;4983479;28;20021;-73
2022/04/11 09:55:55;;;;;;;6.07;4.38;;;9.10;99.90;;;;;;5007825;28;20018;-75
2022/04/11 09:58:23;;;;;;;5.60;3.70;;;9.40;99.90;;;;;;4974726;28;20021;-75
2022/04/11 10:00:51;;;;;;;6.18;4.38;;;9.30;99.90;;;;;;5012698;28;20109;-74
2022/04/11 10:03:19;;;;;;;6.18;3.95;;;9.10;99.90;;;;;;4993495;28;20048;-74
2022/04/11 10:05:46;;;;;;;5.32;3.85;;;9.20;99.90;;;;;;4989102;28;20155;-74
2022/04/11 10:08:12;;;;;;;6.85;4.63;;;9.20;99.90;;;;;;5003455;28;20037;-74
2022/04/11 10:10:39;;;;;;;6.60;4.25;;;9.60;99.90;;;;;;5010863;28;20019;-74
2022/04/11 10:13:11;;;;;;;7.55;4.55;;;9.30;99.90;;;;;;5011457;28;20137;-75
2022/04/11 10:15:38;;;;;;;6.70;4.28;;;9.30;99.90;;;;;;4988096;28;20113;-74
2022/04/11 10:18:05;;;;;;;6.70;4.95;;;9.30;99.90;;;;;;5006694;28;20014;-74
2022/04/11 10:20:36;;;;;;;6.72;4.20;;;9.60;99.90;;;;;;5005010;28;20038;-74
2022/04/11 10:23:10;;;;;;;6.10;4.13;;;9.80;99.90;;;;;;5004982;28;20207;-74
2022/04/11 10:25:50;;;;;;;5.50;4.05;;;9.50;99.90;;;;;;4980483;28;20080;-74
2022/04/11 10:28:22;;;;;;;6.32;4.22;;;9.50;99.90;;;;;;4977514;28;20022;-75
2022/04/11 10:31:10;;;;;;;5.70;3.90;;;9.60;99.90;;;;;;5008049;28;20014;-74
2022/04/11 10:33:55;;;;;;;9.07;3.88;;;10.10;99.90;;;;;;5005656;28;20037;-75
2022/04/11 10:36:38;;;;;;;5.35;3.55;;;10.30;99.90;;;;;;5005063;28;20027;-74
2022/04/11 10:39:16;;;;;;;5.35;4.22;;;10.40;99.90;;;;;;5010953;28;20392;-74
2022/04/11 10:41:56;;;;;;;6.55;4.00;;;9.90;99.90;;;;;;5001719;28;20026;-71
2022/04/11 10:44:31;;;;;;;6.15;3.60;;;10.10;99.90;;;;;;5008114;28;20032;-75
2022/04/11 10:47:09;;;;;;;6.32;4.00;;;10.20;99.90;;;;;;4993199;28;20022;-75
2022/04/11 10:49:50;;;;;;;4.80;3.88;;;10.70;99.90;;;;;;4996889;28;20112;-74
2022/04/11 10:52:35;;;;;;;6.75;4.10;;;10.70;99.90;;;;;;5013604;28;20108;-75
2022/04/11 10:55:20;;;;;;;4.47;3.63;;;10.20;99.90;;;;;;5012392;28;20510;-74
2022/04/11 10:57:47;;;;;;;5.38;3.80;;;10.20;99.90;;;;;;4993431;28;20472;-75
2022/04/11 11:00:14;;;;;;;6.03;3.88;;;10.80;99.90;;;;;;4996649;28;20493;-74
2022/04/11 11:02:59;;;;;;;4.72;3.70;;;10.70;99.90;;;;;;5004658;28;20054;-74
2022/04/11 11:05:32;;;;;;;5.47;3.80;;;10.80;99.90;;;;;;5010337;28;20029;-75
2022/04/11 11:08:09;;;;;;;6.97;3.83;;;10.60;99.90;;;;;;5004632;28;20519;-75
2022/04/11 11:11:24;;;;;;;5.65;3.63;;;10.50;99.90;;;;;;4999246;28;20091;-75
2022/04/11 11:13:51;;;;;;;6.03;3.45;;;10.70;99.90;;;;;;4969858;28;20098;-75
2022/04/11 11:16:17;;;;;;;6.18;3.70;;;10.80;99.90;;;;;;4973014;28;20023;-75
2022/04/11 11:18:46;;;;;;;6.00;4.00;;;10.90;99.90;;;;;;4978405;28;20060;-74
2022/04/11 11:21:44;;;;;;;5.53;3.63;;;10.90;99.90;;;;;;5006571;28;20037;-75
2022/04/11 11:24:11;;;;;;;6.38;4.00;;;11.00;99.90;;;;;;4996433;28;20495;-74
2022/04/11 11:27:04;;;;;;;6.18;3.60;;;11.40;99.90;;;;;;4983400;28;20443;-75
2022/04/11 11:29:43;;;;;;;9.32;3.65;;;11.40;99.90;;;;;;4983502;28;20038;-75
2022/04/11 11:32:12;;;;;;;6.30;3.88;;;11.80;99.90;;;;;;4986891;28;20030;-75
2022/04/11 11:34:38;;;;;;;5.45;3.72;;;12.10;99.90;;;;;;5007469;28;20019;-75
2022/04/11 11:37:12;;;;;;;4.63;3.28;;;11.60;99.90;;;;;;5004002;28;20436;-74
2022/04/11 11:39:39;;;;;;;4.47;3.60;;;11.60;99.90;;;;;;5000478;28;20495;-75
2022/04/11 11:42:09;;;;;;;6.00;3.88;;;11.50;99.90;;;;;;5002558;28;20488;-74
2022/04/11 11:44:42;;;;;;;5.75;3.95;;;11.60;99.90;;;;;;5007204;28;20484;-75
2022/04/11 11:47:08;;;;;;;5.72;3.50;;;11.30;99.90;;;;;;5006809;28;20022;-75
2022/04/11 11:49:45;;;;;;;6.05;3.60;;;11.60;99.90;;;;;;4999091;28;20033;-74
2022/04/11 11:52:20;;;;;;;8.27;3.60;;;11.60;99.90;;;;;;4982835;28;20040;-74
2022/04/11 11:54:48;;;;;;;5.18;3.60;;;11.50;99.90;;;;;;5004604;28;20072;-75
2022/04/11 11:57:18;;;;;;;5.65;3.97;;;11.50;99.90;;;;;;5006931;28;20030;-75
2022/04/11 11:59:51;;;;;;;5.57;4.10;;;12.00;99.90;;;;;;5003675;28;20038;-74
2022/04/11 12:05:13;;;;;;;7.05;4.00;;;12.30;99.90;;;;;;5013328;28;20056;-75
2022/04/11 12:07:39;;;;;;;4.95;3.60;;;12.50;99.90;;;;;;4993728;28;20022;-75
2022/04/11 12:10:10;;;;;;;5.00;3.80;;;12.70;99.90;;;;;;5007417;28;20037;-74
2022/04/11 12:12:36;;;;;;;4.55;3.40;;;13.20;99.90;;;;;;4987517;28;20026;-75
2022/04/11 12:15:06;;;;;;;6.40;3.17;;;13.30;99.90;;;;;;5006833;28;20026;-75
2022/04/11 12:17:37;;;;;;;7.05;3.33;;;13.50;99.90;;;;;;4984477;28;20392;-74
2022/04/11 12:20:18;;;;;;;4.63;3.42;;;13.70;99.90;;;;;;4992272;28;20093;-74
2022/04/11 12:23:19;;;;;;;4.05;3.20;;;13.90;99.90;;;;;;5004673;28;20543;-75
2022/04/11 12:25:51;;;;;;;3.75;2.95;;;14.10;99.90;;;;;;4923023;29;20039;-75
2022/04/11 12:28:27;;;;;;;6.43;3.75;;;14.40;99.90;;;;;;5007565;28;20045;-75
2022/04/11 12:31:02;;;;;;;4.93;2.88;;;14.80;99.90;;;;;;5002949;28;20079;-75
2022/04/11 12:33:50;;;;;;;6.47;3.55;;;14.90;99.90;;;;;;4998044;28;20476;-75
2022/04/11 12:36:30;;;;;;;5.72;3.20;;;15.80;99.80;;;;;;4998269;28;20034;-75
2022/04/11 12:39:00;;;;;;;5.28;3.72;;;15.90;98.70;;;;;;4994879;28;20022;-75
2022/04/11 12:41:37;;;;;;;7.07;3.72;;;14.70;97.90;;;;;;5007112;28;20424;-75
2022/04/11 12:44:03;;;;;;;7.18;3.40;;;15.10;96.90;;;;;;4993078;28;20026;-75
2022/04/11 12:46:29;;;;;;;6.20;3.15;;;15.60;96.70;;;;;;4999558;28;20029;-75
2022/04/11 12:48:59;;;;;;;7.32;3.47;;;16.30;95.60;;;;;;4999525;28;20114;-74
2022/04/11 12:51:28;;;;;;;4.80;2.90;;;16.20;95.80;;;;;;4999385;28;20026;-74